Aviation Digital Data Service (ADDS)

Output produced by TAFs form (0003 UTC 19 July 2018)
found at http://www.aviationweather.gov/adds/tafs/
 
METAR text: RJTL 182332Z 18008KT 9999 BKN015 BKN230 30/24 Q1011 RMK 5CU015 A2986
Conditions at: RJTL (SHIMOFUSA (JMSDF, JP) observed 2332 UTC 18 July 2018
Temperature: 30.0°C (86°F)
Dewpoint: 24.0°C (75°F) [RH = 70%]
Pressure (altimeter): 29.85 inches Hg (1011.0 mb)
Winds: from the S (180 degrees) at 9 MPH (8 knots; 4.2 m/s)
Visibility: 6 or more miles (10+ km)
Ceiling: 1500 feet AGL
Clouds: broken clouds at 1500 feet AGL
broken clouds at 23000 feet AGL
Weather: no significant weather observed at this time